Time;durP1;ratioP1;P1;durP2;ratioP2;P2;SDS_P1;SDS_P2;PMS_P1;PMS_P2;Temp;Humidity;BMP_temperature;BMP_pressure;BME280_temperature;BME280_humidity;BME280_pressure;Samples;Min_cycle;Max_cycle;Signal;HPM_P1;HPM_P2
2023/03/14 00:00:05;;;;;;;5.27;1.17;;;;;;;12.38;93.35;98715.44;5035642;28;20463;-67
2023/03/14 00:02:32;;;;;;;5.83;1.37;;;;;;;12.31;93.77;98714.53;5035401;28;20455;-66
2023/03/14 00:04:59;;;;;;;4.67;0.77;;;;;;;12.28;95.06;98713.31;5035427;28;20900;-66
2023/03/14 00:07:25;;;;;;;4.67;0.90;;;;;;;12.32;94.93;98700.59;5035236;28;20487;-66
2023/03/14 00:09:52;;;;;;;4.40;0.80;;;;;;;12.26;95.48;98698.50;5035298;28;20447;-66
2023/03/14 00:12:19;;;;;;;4.90;0.70;;;;;;;12.30;95.03;98713.72;5035286;28;20475;-66
2023/03/14 00:14:47;;;;;;;4.07;0.70;;;;;;;12.37;94.59;98713.09;5034935;28;20454;-66
2023/03/14 00:17:14;;;;;;;4.60;0.93;;;;;;;12.38;94.37;98692.94;5035174;28;20439;-66
2023/03/14 00:19:41;;;;;;;10.33;0.97;;;;;;;12.37;94.24;98683.22;5035326;28;20461;-66
2023/03/14 00:22:08;;;;;;;4.77;0.80;;;;;;;12.34;93.79;98667.66;5035259;28;20526;-67
2023/03/14 00:24:34;;;;;;;5.53;1.37;;;;;;;12.31;94.04;98657.53;5034743;28;20439;-67
2023/03/14 00:27:01;;;;;;;4.30;0.67;;;;;;;12.23;94.98;98659.31;5034648;28;20484;-67
2023/03/14 00:29:28;;;;;;;4.73;0.93;;;;;;;12.18;94.77;98656.91;5034597;28;20490;-66
2023/03/14 00:31:56;;;;;;;4.83;0.93;;;;;;;12.22;94.44;98659.66;5035026;28;20494;-66
2023/03/14 00:34:22;;;;;;;5.13;0.87;;;;;;;12.19;94.36;98634.03;5034868;28;20458;-66
2023/03/14 00:36:49;;;;;;;4.50;0.80;;;;;;;12.16;94.26;98637.47;5034826;28;20482;-66
2023/03/14 00:39:16;;;;;;;4.43;0.90;;;;;;;12.12;94.47;98640.09;5034281;28;20499;-65
2023/03/14 00:41:42;;;;;;;5.37;1.00;;;;;;;12.14;94.40;98634.34;5034963;28;20451;-65
2023/03/14 00:44:09;;;;;;;4.47;0.80;;;;;;;12.18;94.13;98648.75;5034575;28;20447;-65
2023/03/14 00:46:35;;;;;;;4.30;0.80;;;;;;;12.17;93.85;98649.88;5034509;28;20483;-65
2023/03/14 00:49:03;;;;;;;4.73;0.70;;;;;;;12.18;93.82;98637.91;5034548;28;20491;-66
2023/03/14 00:51:30;;;;;;;7.03;1.20;;;;;;;12.16;93.89;98631.25;5034433;28;20498;-66
2023/03/14 00:53:57;;;;;;;4.90;0.83;;;;;;;12.15;93.81;98618.84;5034369;28;20435;-67
2023/03/14 00:56:23;;;;;;;4.70;0.83;;;;;;;12.14;93.85;98617.25;5034524;28;20882;-66
2023/03/14 00:58:50;;;;;;;4.30;0.70;;;;;;;12.13;93.89;98608.34;5034536;28;20474;-66
2023/03/14 01:01:19;;;;;;;4.53;0.73;;;;;;;12.12;93.86;98612.19;5033991;28;21021;-66
2023/03/14 01:03:45;;;;;;;7.23;1.10;;;;;;;12.08;94.29;98609.38;5034221;28;20479;-66
2023/03/14 01:06:15;;;;;;;4.73;1.03;;;;;;;12.06;94.22;98600.84;5034129;28;20459;-65
2023/03/14 01:08:42;;;;;;;4.20;0.63;;;;;;;12.00;94.67;98585.22;5033709;28;20515;-66
2023/03/14 01:11:10;;;;;;;6.40;1.00;;;;;;;11.90;95.12;98578.44;5033822;28;20447;-65
2023/03/14 01:13:37;;;;;;;4.20;0.90;;;;;;;11.90;95.21;98600.13;5034074;28;20443;-66
2023/03/14 01:16:06;;;;;;;3.90;0.50;;;;;;;11.87;95.32;98611.72;5034007;28;20447;-65
2023/03/14 01:18:37;;;;;;;4.40;0.90;;;;;;;11.87;95.69;98625.28;5033932;28;20458;-65
2023/03/14 01:21:14;;;;;;;5.03;1.07;;;;;;;11.93;95.32;98631.97;5034039;28;20439;-66
2023/03/14 01:23:42;;;;;;;4.10;0.70;;;;;;;11.96;95.32;98663.06;5033764;28;20502;-65
2023/03/14 01:26:10;;;;;;;4.00;0.60;;;;;;;11.97;95.25;98667.34;5033611;28;20485;-66
2023/03/14 01:28:37;;;;;;;4.30;0.80;;;;;;;11.93;95.66;98666.47;5033613;28;20502;-65
2023/03/14 01:31:10;;;;;;;4.57;1.00;;;;;;;12.00;95.02;98678.25;5033406;28;20479;-66
2023/03/14 01:33:38;;;;;;;5.77;1.07;;;;;;;11.96;95.60;98676.63;5033696;28;20514;-65
2023/03/14 01:36:06;;;;;;;6.07;0.87;;;;;;;11.99;95.59;98681.31;5033802;28;20493;-66
2023/03/14 01:38:34;;;;;;;4.30;0.80;;;;;;;12.03;95.11;98674.81;5033820;28;20462;-66
2023/03/14 01:41:03;;;;;;;4.53;0.80;;;;;;;12.01;95.45;98673.63;5033229;28;21012;-66
2023/03/14 01:43:30;;;;;;;4.27;0.50;;;;;;;11.96;95.88;98674.69;5033633;28;20439;-65
2023/03/14 01:46:24;;;;;;;4.70;0.73;;;;;;;11.94;95.82;98684.31;5033304;28;20454;-65
2023/03/14 01:49:06;;;;;;;7.80;1.30;;;;;;;12.08;94.67;98690.03;5023522;28;20493;-65
2023/03/14 01:51:39;;;;;;;7.17;0.80;;;;;;;12.09;94.58;98688.91;5033341;28;20419;-66
2023/03/14 01:54:11;;;;;;;4.40;0.97;;;;;;;12.09;94.47;98678.06;5033315;28;20436;-65
2023/03/14 01:56:41;;;;;;;5.57;1.20;;;;;;;12.02;95.24;98665.13;5033424;28;20897;-65
2023/03/14 01:59:15;;;;;;;4.40;0.67;;;;;;;12.07;94.85;98669.47;5033033;28;20939;-65
2023/03/14 02:01:45;;;;;;;4.30;0.87;;;;;;;12.09;94.61;98659.06;5032071;28;20451;-66
2023/03/14 02:04:12;;;;;;;4.20;0.60;;;;;;;12.07;94.61;98653.97;5033092;28;20428;-66
2023/03/14 02:06:48;;;;;;;4.37;0.70;;;;;;;12.02;94.92;98645.34;5033231;28;20471;-66
2023/03/14 02:09:15;;;;;;;4.73;0.80;;;;;;;12.06;94.98;98648.91;5033209;28;20526;-66
2023/03/14 02:11:45;;;;;;;4.67;0.70;;;;;;;12.10;94.38;98649.75;5033270;28;20474;-66
2023/03/14 02:14:21;;;;;;;14.23;0.70;;;;;;;12.06;94.49;98643.47;5032946;28;20482;-66
2023/03/14 02:16:48;;;;;;;4.63;0.73;;;;;;;12.03;94.48;98655.03;5032848;28;20896;-65
2023/03/14 02:19:21;;;;;;;4.90;1.10;;;;;;;12.03;94.47;98646.91;5033157;28;20550;-65
2023/03/14 02:21:53;;;;;;;4.97;1.00;;;;;;;12.05;93.99;98642.69;5032785;28;20931;-66
2023/03/14 02:24:26;;;;;;;4.10;0.60;;;;;;;12.05;94.17;98626.41;5032790;28;20971;-65
2023/03/14 02:27:07;;;;;;;6.13;0.90;;;;;;;12.07;94.14;98626.03;5033380;28;20527;-65
2023/03/14 02:29:38;;;;;;;4.00;0.67;;;;;;;12.02;94.32;98623.63;5032799;28;20498;-65
2023/03/14 02:32:07;;;;;;;6.63;0.70;;;;;;;12.01;94.35;98624.78;5032993;28;20465;-66
2023/03/14 02:34:36;;;;;;;4.97;0.60;;;;;;;12.06;94.39;98627.19;5033008;28;20824;-66
2023/03/14 02:37:03;;;;;;;4.60;0.80;;;;;;;12.06;94.33;98616.34;5032613;28;20455;-66
2023/03/14 02:39:37;;;;;;;4.20;0.50;;;;;;;12.04;94.00;98616.72;5032642;28;20482;-66
2023/03/14 02:42:04;;;;;;;4.53;0.70;;;;;;;12.10;93.53;98609.06;5032641;28;20933;-65
2023/03/14 02:44:32;;;;;;;4.40;0.60;;;;;;;12.10;93.27;98607.13;5032815;28;20530;-65
2023/03/14 02:47:02;;;;;;;4.07;0.63;;;;;;;12.10;93.10;98603.63;5032737;28;20459;-66
2023/03/14 02:49:33;;;;;;;4.40;0.93;;;;;;;12.15;92.54;98607.97;5032785;28;20472;-65
2023/03/14 02:52:00;;;;;;;4.13;0.60;;;;;;;12.19;92.41;98595.25;5032603;28;20427;-65
2023/03/14 02:54:26;;;;;;;4.30;0.70;;;;;;;12.12;92.49;98583.09;5032500;28;20482;-65
2023/03/14 02:56:53;;;;;;;6.40;0.70;;;;;;;12.11;92.45;98581.53;5032730;28;20655;-65
2023/03/14 02:59:19;;;;;;;4.40;0.70;;;;;;;12.07;92.62;98575.25;5032646;28;20494;-65
2023/03/14 03:01:47;;;;;;;4.43;1.00;;;;;;;12.05;92.76;98563.22;5032465;28;20462;-66
2023/03/14 03:04:14;;;;;;;4.93;0.90;;;;;;;12.02;92.89;98561.22;5032641;28;20538;-65
2023/03/14 03:06:42;;;;;;;4.80;0.83;;;;;;;12.01;92.68;98554.22;5032656;28;20500;-65
2023/03/14 03:09:08;;;;;;;4.40;0.70;;;;;;;12.01;92.84;98551.50;5032492;28;20968;-63
2023/03/14 03:11:35;;;;;;;6.67;0.87;;;;;;;11.97;92.78;98542.53;5032594;28;20443;-65
2023/03/14 03:14:02;;;;;;;4.20;0.63;;;;;;;11.93;92.86;98555.25;5032702;28;20477;-66
2023/03/14 03:16:28;;;;;;;4.17;0.70;;;;;;;11.85;93.26;98552.38;5036320;28;20553;-65
2023/03/14 03:18:56;;;;;;;4.80;1.10;;;;;;;11.84;93.48;98553.53;5036320;28;20465;-66
2023/03/14 03:21:23;;;;;;;4.10;0.70;;;;;;;11.81;93.44;98546.06;5035963;28;20483;-66
2023/03/14 03:23:50;;;;;;;4.03;0.50;;;;;;;11.88;93.27;98544.69;5036305;28;20446;-66
2023/03/14 03:26:17;;;;;;;4.27;0.70;;;;;;;11.75;93.27;98552.94;5036201;28;20513;-66
2023/03/14 03:28:44;;;;;;;4.10;0.60;;;;;;;11.77;93.42;98561.50;5035723;28;20992;-66
2023/03/14 03:31:11;;;;;;;4.50;0.80;;;;;;;11.76;93.98;98570.78;5036009;28;20797;-66
2023/03/14 03:33:43;;;;;;;4.10;0.70;;;;;;;11.74;93.95;98570.38;5035704;28;20529;-65
2023/03/14 03:36:12;;;;;;;4.20;0.70;;;;;;;11.75;93.78;98566.50;5035704;28;20420;-65
2023/03/14 03:38:39;;;;;;;5.20;0.90;;;;;;;11.75;93.23;98574.66;5035877;28;20455;-64
2023/03/14 03:41:06;;;;;;;4.80;0.93;;;;;;;11.81;92.98;98570.50;5035532;28;20451;-66
2023/03/14 03:43:33;;;;;;;4.20;0.77;;;;;;;11.79;92.80;98564.66;5035839;28;20470;-66
2023/03/14 03:46:04;;;;;;;4.10;0.60;;;;;;;11.74;93.64;98567.66;5035773;28;20475;-68
2023/03/14 03:48:34;;;;;;;4.53;0.83;;;;;;;11.68;93.86;98552.03;5035324;28;21026;-68
2023/03/14 03:51:01;;;;;;;4.23;0.70;;;;;;;11.64;93.27;98557.38;5035389;28;20999;-66
2023/03/14 03:53:29;;;;;;;4.33;0.83;;;;;;;11.57;93.54;98560.75;5035451;28;20812;-66
2023/03/14 03:55:56;;;;;;;5.27;0.70;;;;;;;11.72;92.47;98552.88;5035233;28;20451;-65
2023/03/14 03:58:22;;;;;;;5.07;0.93;;;;;;;11.70;92.56;98560.59;5035142;28;20513;-65
2023/03/14 04:00:49;;;;;;;5.37;0.90;;;;;;;11.74;91.82;98548.66;5035469;28;20443;-64
2023/03/14 04:03:17;;;;;;;4.37;0.77;;;;;;;11.73;91.86;98552.53;5035114;28;20475;-65
2023/03/14 04:05:43;;;;;;;4.47;0.90;;;;;;;11.74;91.51;98567.66;5035470;28;20507;-64
2023/03/14 04:08:16;;;;;;;4.00;0.50;;;;;;;11.76;91.21;98557.22;5035383;28;20486;-65
2023/03/14 04:10:44;;;;;;;4.97;0.87;;;;;;;11.75;91.14;98539.38;5035521;28;20463;-65
2023/03/14 04:13:10;;;;;;;6.00;0.93;;;;;;;11.77;90.74;98564.22;5035218;28;20451;-64
2023/03/14 04:15:37;;;;;;;4.20;0.57;;;;;;;11.76;91.06;98557.22;5035136;28;20447;-64
2023/03/14 04:18:04;;;;;;;4.40;0.70;;;;;;;11.77;90.74;98550.66;5035119;28;20467;-64
2023/03/14 04:20:30;;;;;;;4.60;0.97;;;;;;;11.80;90.55;98552.66;5035164;28;20454;-64
2023/03/14 04:22:57;;;;;;;12.03;1.07;;;;;;;11.82;90.13;98560.41;5035013;28;20497;-65
2023/03/14 04:25:23;;;;;;;3.80;0.43;;;;;;;11.83;89.72;98538.41;5034660;28;20514;-64
2023/03/14 04:27:51;;;;;;;5.37;0.90;;;;;;;11.82;89.85;98536.84;5034895;28;20476;-64
2023/03/14 04:30:18;;;;;;;4.30;0.80;;;;;;;11.83;89.66;98522.13;5034648;28;20447;-64
2023/03/14 04:32:45;;;;;;;4.43;0.77;;;;;;;11.76;90.80;98527.38;5034928;28;20493;-64
2023/03/14 04:35:11;;;;;;;4.00;0.60;;;;;;;11.78;89.56;98525.13;5034837;28;20447;-64
2023/03/14 04:37:38;;;;;;;3.90;0.50;;;;;;;11.83;89.34;98516.72;5034709;28;20463;-64
2023/03/14 04:40:06;;;;;;;4.30;0.70;;;;;;;11.80;89.79;98516.59;5046246;22;20502;-77
2023/03/14 04:42:33;;;;;;;3.97;0.57;;;;;;;11.76;89.74;98510.34;5039973;28;20475;-77
2023/03/14 04:45:01;;;;;;;4.30;0.77;;;;;;;11.76;89.51;98502.97;5041204;28;20504;-79
2023/03/14 04:47:28;;;;;;;3.90;0.50;;;;;;;11.74;89.90;98491.72;5040863;28;20473;-79
2023/03/14 04:49:55;;;;;;;4.63;0.80;;;;;;;11.68;90.53;98476.09;5042697;28;20562;-78
2023/03/14 04:52:22;;;;;;;4.50;0.87;;;;;;;11.53;91.40;98492.09;5039734;28;20447;-77
2023/03/14 04:54:49;;;;;;;4.20;0.60;;;;;;;11.55;90.47;98487.13;5039501;28;20534;-78
2023/03/14 04:57:15;;;;;;;4.80;0.60;;;;;;;11.59;90.73;98511.56;5039695;28;20510;-78
2023/03/14 04:59:42;;;;;;;4.60;0.80;;;;;;;11.62;89.96;98510.84;5039046;28;20470;-78
2023/03/14 05:02:10;;;;;;;4.40;0.70;;;;;;;11.69;89.22;98504.78;5038558;28;20447;-77
2023/03/14 05:04:37;;;;;;;4.50;0.80;;;;;;;11.68;89.08;98509.41;5037819;28;20518;-78
2023/03/14 05:07:04;;;;;;;4.03;0.60;;;;;;;11.68;88.95;98501.28;5037486;28;21067;-77
2023/03/14 05:09:30;;;;;;;4.90;0.70;;;;;;;11.72;88.80;98498.63;5039035;28;20551;-79
2023/03/14 05:11:57;;;;;;;5.07;0.93;;;;;;;11.76;88.18;98491.34;5039947;28;20438;-79
2023/03/14 05:14:24;;;;;;;4.20;0.80;;;;;;;11.81;87.83;98491.81;5040056;28;20435;-79
2023/03/14 05:16:50;;;;;;;4.40;0.80;;;;;;;11.82;88.09;98489.91;5040197;28;20471;-77
2023/03/14 05:19:18;;;;;;;4.60;0.80;;;;;;;11.76;88.10;98481.28;5037584;28;20431;-78
2023/03/14 05:24:45;;;;;;;7.13;0.90;;;;;;;11.75;87.79;98479.72;5073763;23;20505;-67
2023/03/14 05:27:12;;;;;;;5.10;0.80;;;;;;;11.77;87.58;98480.13;5033796;28;20447;-68
2023/03/14 05:29:38;;;;;;;4.20;0.70;;;;;;;11.81;87.72;98485.63;5033628;28;20494;-67
2023/03/14 05:32:05;;;;;;;4.47;0.70;;;;;;;11.78;87.73;98481.72;5033739;28;20447;-68
2023/03/14 05:34:33;;;;;;;6.83;1.10;;;;;;;11.80;87.39;98476.69;5033415;28;20483;-69
2023/03/14 05:37:00;;;;;;;4.20;0.80;;;;;;;11.70;88.14;98480.03;5032955;28;20443;-67
2023/03/14 05:39:26;;;;;;;4.60;0.80;;;;;;;11.66;88.02;98467.53;5033525;28;20490;-67
2023/03/14 05:41:55;;;;;;;4.03;0.53;;;;;;;11.71;87.09;98462.59;5033579;28;20445;-67
2023/03/14 05:44:22;;;;;;;4.40;0.60;;;;;;;11.79;86.51;98477.84;5033200;28;20929;-67
2023/03/14 05:46:49;;;;;;;4.17;0.63;;;;;;;11.80;86.27;98479.41;5033009;28;20893;-73
2023/03/14 05:49:16;;;;;;;6.50;0.90;;;;;;;11.83;86.00;98489.59;5032919;28;21339;-67
2023/03/14 05:51:44;;;;;;;4.00;0.60;;;;;;;11.82;86.02;98482.59;5033088;28;20442;-67
2023/03/14 05:54:10;;;;;;;4.40;0.70;;;;;;;11.83;85.55;98477.94;5033076;28;20446;-67
2023/03/14 05:56:37;;;;;;;4.93;0.63;;;;;;;11.81;85.39;98475.56;5033045;28;20439;-67
2023/03/14 05:59:03;;;;;;;4.17;0.60;;;;;;;11.79;85.87;98475.13;5032907;28;20462;-67
2023/03/14 06:01:30;;;;;;;5.90;1.07;;;;;;;11.78;85.48;98476.28;5033000;28;20528;-67
2023/03/14 06:03:57;;;;;;;4.90;1.10;;;;;;;11.80;85.23;98474.00;5032924;28;20497;-67
2023/03/14 06:06:23;;;;;;;4.17;0.63;;;;;;;11.75;86.04;98473.50;5032942;28;20493;-67
2023/03/14 06:08:51;;;;;;;4.23;0.77;;;;;;;11.77;85.73;98482.84;5032684;28;20494;-67
2023/03/14 06:11:18;;;;;;;4.40;0.80;;;;;;;11.78;84.63;98470.88;5032976;28;20956;-67
2023/03/14 06:13:46;;;;;;;9.30;1.10;;;;;;;11.89;83.95;98459.44;5033135;28;20479;-67
2023/03/14 06:16:13;;;;;;;4.47;0.70;;;;;;;11.90;83.44;98461.78;5032768;28;20869;-68
2023/03/14 06:18:39;;;;;;;4.20;0.67;;;;;;;11.93;83.11;98466.50;5033023;28;20449;-67
2023/03/14 06:21:06;;;;;;;4.20;0.60;;;;;;;11.95;82.85;98461.47;5033104;28;20445;-67
2023/03/14 06:23:33;;;;;;;4.67;1.03;;;;;;;11.93;83.40;98471.13;5032944;28;20521;-67
2023/03/14 06:26:02;;;;;;;8.70;1.27;;;;;;;11.99;83.21;98477.81;5032862;28;20447;-67
2023/03/14 06:28:28;;;;;;;4.93;0.90;;;;;;;11.97;83.35;98472.75;5032829;28;20451;-67
2023/03/14 06:30:55;;;;;;;6.70;1.20;;;;;;;12.01;82.11;98467.41;5032934;28;20458;-67
2023/03/14 06:33:21;;;;;;;6.30;0.70;;;;;;;11.99;82.86;98458.81;5032622;28;20482;-67
2023/03/14 06:35:48;;;;;;;4.97;1.17;;;;;;;12.02;82.08;98464.31;5032604;28;20821;-67
2023/03/14 06:38:15;;;;;;;4.70;0.90;;;;;;;12.09;81.82;98471.81;5032887;28;20483;-67
2023/03/14 06:40:41;;;;;;;4.97;1.13;;;;;;;12.10;81.69;98487.72;5032472;28;21007;-67
2023/03/14 06:43:09;;;;;;;4.10;0.63;;;;;;;12.18;81.06;98480.47;5032869;28;20470;-67
2023/03/14 06:45:36;;;;;;;4.43;0.87;;;;;;;12.22;81.67;98494.91;5032874;28;20446;-68
2023/03/14 06:48:03;;;;;;;5.70;0.90;;;;;;;12.27;81.29;98499.22;5033028;28;20538;-68
2023/03/14 06:50:29;;;;;;;5.00;0.70;;;;;;;12.32;80.91;98485.34;5036802;28;20487;-67
2023/03/14 06:52:56;;;;;;;5.70;0.90;;;;;;;12.34;80.99;98496.63;5036391;28;20439;-67
2023/03/14 06:55:23;;;;;;;4.33;0.73;;;;;;;12.41;80.20;98496.72;5036410;28;20475;-67
2023/03/14 06:57:49;;;;;;;13.00;1.70;;;;;;;12.47;80.41;98499.91;5036367;28;20478;-67
2023/03/14 07:00:18;;;;;;;4.80;1.10;;;;;;;12.51;79.17;98496.09;5036502;28;20947;-68
2023/03/14 07:02:45;;;;;;;5.17;1.10;;;;;;;12.62;78.75;98501.72;5036618;28;20439;-69
2023/03/14 07:05:12;;;;;;;8.00;0.90;;;;;;;12.56;78.97;98500.44;5036461;28;20530;-68
2023/03/14 07:07:39;;;;;;;4.50;0.83;;;;;;;12.58;78.73;98517.94;5036378;28;20447;-68
2023/03/14 07:10:08;;;;;;;5.10;0.97;;;;;;;12.52;79.15;98510.47;5035861;28;20586;-68
2023/03/14 07:12:35;;;;;;;5.07;0.70;;;;;;;12.55;79.35;98520.59;5036156;28;20829;-69
2023/03/14 07:15:01;;;;;;;5.17;0.90;;;;;;;12.50;79.19;98520.91;5035842;28;20442;-68
2023/03/14 07:17:29;;;;;;;4.20;0.60;;;;;;;12.51;79.55;98527.91;5035837;28;20967;-68
2023/03/14 07:19:56;;;;;;;4.50;0.80;;;;;;;12.48;79.65;98523.19;5036217;28;20455;-68
2023/03/14 07:22:22;;;;;;;6.30;1.23;;;;;;;12.38;80.81;98530.81;5036198;28;20473;-68
2023/03/14 07:24:49;;;;;;;4.60;0.67;;;;;;;12.36;80.63;98524.97;5035976;28;20952;-72
2023/03/14 07:27:16;;;;;;;4.77;0.90;;;;;;;12.38;80.36;98528.09;5036092;28;20577;-71
2023/03/14 07:29:42;;;;;;;4.60;0.80;;;;;;;12.41;81.11;98533.97;5035875;28;20518;-71
2023/03/14 07:32:09;;;;;;;4.30;0.67;;;;;;;12.47;81.00;98537.94;5035707;28;20529;-71
2023/03/14 07:34:37;;;;;;;5.03;0.80;;;;;;;12.59;79.82;98540.47;5035975;28;20531;-70
2023/03/14 07:37:04;;;;;;;6.10;0.80;;;;;;;12.66;79.08;98540.56;5035952;28;20471;-70
2023/03/14 07:39:31;;;;;;;5.07;0.83;;;;;;;12.79;79.53;98546.56;5035426;28;20463;-71
2023/03/14 07:41:58;;;;;;;13.23;0.80;;;;;;;12.79;79.48;98550.09;5036032;28;20443;-70
2023/03/14 07:44:24;;;;;;;6.53;0.70;;;;;;;12.85;78.95;98542.41;5035731;28;20451;-70
2023/03/14 07:46:51;;;;;;;7.90;1.17;;;;;;;12.92;78.79;98541.69;5035903;28;20467;-68
2023/03/14 07:49:18;;;;;;;5.43;0.97;;;;;;;12.93;79.02;98541.34;5035352;28;21004;-72
2023/03/14 07:51:48;;;;;;;6.63;1.20;;;;;;;13.00;78.59;98548.81;5035688;28;20438;-68
2023/03/14 07:54:15;;;;;;;4.60;0.83;;;;;;;12.99;78.15;98547.25;5035560;28;20519;-69
2023/03/14 07:56:42;;;;;;;5.20;1.00;;;;;;;13.13;77.81;98537.34;5035181;28;20474;-68
2023/03/14 07:59:08;;;;;;;9.10;1.03;;;;;;;13.24;77.36;98540.25;5035496;28;20465;-70
2023/03/14 08:01:35;;;;;;;5.13;0.87;;;;;;;13.39;76.18;98533.03;5034435;28;20439;-67
2023/03/14 08:04:02;;;;;;;5.10;0.80;;;;;;;13.43;76.30;98533.09;5035660;28;20439;-67
2023/03/14 08:06:28;;;;;;;4.33;0.80;;;;;;;13.47;76.02;98528.47;5035122;28;20450;-66
2023/03/14 08:08:56;;;;;;;5.77;0.93;;;;;;;13.54;76.48;98533.97;5035094;28;21005;-67
2023/03/14 08:11:23;;;;;;;4.50;0.70;;;;;;;13.56;76.48;98527.03;5035377;28;20487;-67
2023/03/14 08:13:51;;;;;;;4.50;0.90;;;;;;;13.62;75.05;98530.19;5035345;28;20475;-66
2023/03/14 08:16:18;;;;;;;4.50;0.70;;;;;;;13.66;74.82;98524.81;5035069;28;20955;-67
2023/03/14 08:18:46;;;;;;;5.43;0.80;;;;;;;13.50;75.97;98528.53;5035139;28;20467;-67
2023/03/14 08:21:12;;;;;;;5.47;1.00;;;;;;;13.45;75.67;98520.66;5035289;28;20439;-67
2023/03/14 08:23:39;;;;;;;6.10;1.03;;;;;;;13.52;75.45;98528.16;5034967;28;20466;-67
2023/03/14 08:26:07;;;;;;;5.37;0.93;;;;;;;13.54;76.10;98529.31;5034815;28;20454;-67
2023/03/14 08:28:34;;;;;;;4.80;0.93;;;;;;;13.43;76.23;98533.09;5034964;28;20450;-67
2023/03/14 08:31:01;;;;;;;5.37;0.90;;;;;;;13.32;76.71;98527.50;5035034;28;20586;-67
2023/03/14 08:33:30;;;;;;;5.80;1.07;;;;;;;13.22;77.53;98544.44;5034755;28;20440;-67
2023/03/14 08:35:58;;;;;;;4.80;1.10;;;;;;;13.20;77.82;98544.81;5034970;28;20871;-67
2023/03/14 08:38:25;;;;;;;4.80;0.87;;;;;;;13.15;79.33;98539.72;5034476;28;20489;-67
2023/03/14 08:40:56;;;;;;;5.57;0.83;;;;;;;13.10;80.63;98534.56;5034882;28;20447;-67
2023/03/14 08:43:24;;;;;;;6.73;1.00;;;;;;;13.08;80.97;98545.03;5034920;28;20511;-67
2023/03/14 08:45:50;;;;;;;5.17;0.80;;;;;;;13.10;80.53;98538.09;5034560;28;20445;-67
2023/03/14 08:48:19;;;;;;;7.90;0.73;;;;;;;13.22;79.06;98542.53;5034685;28;20447;-67
2023/03/14 08:50:46;;;;;;;4.50;0.70;;;;;;;13.25;79.27;98541.03;5034419;28;20574;-67
2023/03/14 08:53:12;;;;;;;6.27;0.93;;;;;;;13.33;77.55;98546.19;5034452;28;20445;-68
2023/03/14 08:55:39;;;;;;;5.07;1.00;;;;;;;13.41;77.59;98547.03;5034168;28;20478;-68
2023/03/14 08:58:05;;;;;;;5.80;0.70;;;;;;;13.54;76.85;98555.75;5034386;28;20446;-70
2023/03/14 09:00:33;;;;;;;5.07;0.90;;;;;;;13.60;76.87;98554.28;5034362;28;20887;-68
2023/03/14 09:03:00;;;;;;;4.40;0.80;;;;;;;13.62;76.26;98550.03;5034603;28;20445;-67
2023/03/14 09:05:26;;;;;;;8.60;0.87;;;;;;;13.77;75.23;98553.69;5034258;28;20439;-67
2023/03/14 09:07:53;;;;;;;4.47;0.70;;;;;;;13.75;75.04;98541.63;5034407;28;20439;-67
2023/03/14 09:10:20;;;;;;;4.30;0.67;;;;;;;13.63;74.94;98548.06;5034038;28;20585;-67
2023/03/14 09:12:46;;;;;;;6.37;1.27;;;;;;;13.54;74.93;98533.97;5032769;28;20445;-67
2023/03/14 09:15:13;;;;;;;14.30;0.80;;;;;;;13.55;75.74;98535.56;5033976;28;20447;-67
2023/03/14 09:17:43;;;;;;;4.40;0.80;;;;;;;13.56;75.33;98528.97;5033732;28;20817;-67
2023/03/14 09:20:11;;;;;;;4.60;0.87;;;;;;;13.71;74.76;98529.91;5033593;28;20538;-68
2023/03/14 09:22:38;;;;;;;4.73;0.80;;;;;;;13.95;74.00;98534.06;5033985;28;20481;-68
2023/03/14 09:25:05;;;;;;;4.10;0.60;;;;;;;14.22;72.96;98532.75;5033889;28;20519;-68
2023/03/14 09:27:32;;;;;;;4.60;0.90;;;;;;;14.51;70.19;98516.66;5034059;28;20542;-67
2023/03/14 09:29:58;;;;;;;5.40;0.93;;;;;;;14.71;69.58;98520.72;5033687;28;20487;-68
2023/03/14 09:32:25;;;;;;;6.00;1.03;;;;;;;14.87;69.86;98509.50;5033792;28;20445;-67
2023/03/14 09:34:53;;;;;;;7.30;0.80;;;;;;;15.08;68.97;98504.16;5033720;28;20443;-68
2023/03/14 09:37:20;;;;;;;6.10;0.80;;;;;;;14.99;64.77;98517.38;5033677;28;20493;-68
2023/03/14 09:39:47;;;;;;;4.77;0.70;;;;;;;14.85;65.63;98518.06;5033508;28;20470;-67
2023/03/14 09:42:18;;;;;;;5.67;0.80;;;;;;;14.74;67.54;98513.69;5033662;28;20799;-67
2023/03/14 09:44:54;;;;;;;5.00;0.70;;;;;;;14.67;67.03;98511.72;5033836;28;20427;-68
2023/03/14 09:47:21;;;;;;;9.80;1.10;;;;;;;14.70;67.05;98516.41;5033573;28;20423;-67
2023/03/14 09:49:48;;;;;;;8.07;1.00;;;;;;;14.69;66.39;98519.50;5033513;28;20459;-67
2023/03/14 09:52:21;;;;;;;4.33;0.60;;;;;;;14.67;65.50;98519.91;5033084;28;20479;-68
2023/03/14 09:54:51;;;;;;;5.17;0.90;;;;;;;14.54;66.69;98522.13;5033044;28;20429;-68
2023/03/14 09:57:20;;;;;;;4.60;0.60;;;;;;;14.56;66.37;98529.94;5033426;28;20475;-68
2023/03/14 09:59:49;;;;;;;4.97;0.60;;;;;;;14.58;66.51;98525.69;5033287;28;20517;-68
2023/03/14 10:02:19;;;;;;;5.50;0.83;;;;;;;14.57;66.21;98528.78;5032983;28;20890;-67
2023/03/14 10:04:46;;;;;;;4.20;0.50;;;;;;;14.55;65.21;98520.19;5032970;28;20439;-67
2023/03/14 10:07:19;;;;;;;4.10;0.60;;;;;;;14.54;66.63;98521.38;5032966;28;20447;-67
2023/03/14 10:09:46;;;;;;;4.63;0.80;;;;;;;14.55;65.37;98520.19;5033160;28;20471;-68
2023/03/14 10:12:13;;;;;;;6.40;1.00;;;;;;;14.51;65.08;98524.84;5032906;28;20530;-67
2023/03/14 10:14:49;;;;;;;4.40;0.87;;;;;;;14.50;66.75;98528.72;5033152;28;20474;-68
2023/03/14 10:17:16;;;;;;;4.50;0.67;;;;;;;14.46;65.18;98525.16;5033160;28;20488;-68
2023/03/14 10:19:54;;;;;;;4.70;0.70;;;;;;;14.45;64.94;98532.56;5033066;28;20544;-66
2023/03/14 10:22:25;;;;;;;4.77;0.83;;;;;;;14.45;65.61;98532.56;5033062;28;20467;-67
2023/03/14 10:24:54;;;;;;;4.10;0.53;;;;;;;14.49;64.21;98533.41;5032348;28;20494;-68
2023/03/14 10:27:22;;;;;;;5.27;0.87;;;;;;;14.46;65.18;98530.59;5033052;28;20442;-67
2023/03/14 10:29:55;;;;;;;4.90;0.90;;;;;;;14.36;66.90;98529.38;5032816;28;20542;-68
2023/03/14 10:32:23;;;;;;;7.23;0.90;;;;;;;14.42;66.17;98546.13;5033037;28;20439;-67
2023/03/14 10:35:19;;;;;;;4.97;0.70;;;;;;;14.33;66.71;98535.56;5032886;28;20492;-67
2023/03/14 10:37:54;;;;;;;4.30;0.83;;;;;;;14.38;66.67;98529.75;5032932;28;20454;-67
2023/03/14 10:40:26;;;;;;;6.73;0.83;;;;;;;14.38;66.48;98535.97;5032877;28;20463;-67
2023/03/14 10:42:55;;;;;;;6.40;0.70;;;;;;;14.31;67.46;98527.00;5033026;28;20436;-67
2023/03/14 10:45:35;;;;;;;6.63;0.77;;;;;;;14.31;66.34;98532.44;5032588;28;20948;-67
2023/03/14 10:48:18;;;;;;;4.23;0.60;;;;;;;14.32;66.69;98523.88;5032497;28;21035;-67
2023/03/14 10:50:50;;;;;;;5.20;0.63;;;;;;;14.34;67.18;98526.22;5032724;28;20577;-66
2023/03/14 10:53:19;;;;;;;5.67;0.80;;;;;;;14.30;67.82;98526.22;5032508;28;20431;-68
2023/03/14 10:55:46;;;;;;;5.10;0.90;;;;;;;14.33;67.26;98524.66;5033697;28;20450;-68
2023/03/14 10:58:21;;;;;;;4.63;0.70;;;;;;;14.23;66.99;98526.16;5032724;28;20438;-67
2023/03/14 11:00:52;;;;;;;4.10;0.50;;;;;;;14.23;67.06;98531.59;5032433;28;20526;-67
2023/03/14 11:03:20;;;;;;;6.30;1.00;;;;;;;14.22;66.90;98529.25;5032978;28;20438;-67
2023/03/14 11:05:53;;;;;;;4.07;0.50;;;;;;;14.19;67.65;98524.53;5032401;28;20457;-67
2023/03/14 11:08:26;;;;;;;6.83;0.90;;;;;;;14.19;66.58;98527.28;5032726;28;20515;-68
2023/03/14 11:11:08;;;;;;;6.93;0.80;;;;;;;14.22;67.13;98524.59;5032672;28;20562;-67
2023/03/14 11:13:40;;;;;;;4.10;0.50;;;;;;;14.01;66.70;98527.88;5032686;28;20459;-67
2023/03/14 11:16:14;;;;;;;4.63;0.80;;;;;;;14.06;67.04;98526.75;5032578;28;20979;-67
2023/03/14 11:19:12;;;;;;;4.60;0.83;;;;;;;14.11;66.92;98534.59;5032626;28;20441;-67
2023/03/14 11:21:47;;;;;;;4.83;0.60;;;;;;;14.06;66.72;98524.81;5026508;28;20470;-68
2023/03/14 11:24:39;;;;;;;7.70;0.87;;;;;;;14.13;66.88;98527.63;5032351;28;20462;-67
2023/03/14 11:27:15;;;;;;;8.73;0.90;;;;;;;14.03;68.69;98527.50;5032256;28;20514;-67
2023/03/14 11:29:52;;;;;;;6.63;0.70;;;;;;;14.02;68.15;98528.66;5032459;28;20474;-67
2023/03/14 11:32:27;;;;;;;4.30;0.60;;;;;;;14.09;67.23;98521.34;5032393;28;20467;-68
2023/03/14 11:34:55;;;;;;;5.90;0.60;;;;;;;14.14;66.96;98529.19;5032455;28;20504;-68
2023/03/14 11:37:26;;;;;;;4.93;0.67;;;;;;;14.12;67.73;98520.63;5035619;28;20534;-68
2023/03/14 11:40:07;;;;;;;4.20;0.60;;;;;;;14.07;68.44;98526.38;5035927;28;20601;-69
2023/03/14 11:42:34;;;;;;;5.00;0.67;;;;;;;14.09;68.22;98524.06;5035879;28;20429;-68